Flight Track Log - Related Links

Times and Time Zones

All times are in EST time to prevent confusion due to time zone crossing. See the SCX8700 flight status page for this flight to view local times or setup timezone preferences in your user account.

Time Position Orientation Groundspeed Altitude Reporting Facility
EST Latitude Longitude Course Direction KTS MPH feet Rate Location/Type
Mon 05:09:41 PM 25.7981 -80.2744 79° East 150 173 900  Level Miami Center
Mon 05:10:12 PM 25.8031 -80.2469 79° East 166 191 2,200 2,739 Climbing Miami Center
Mon 05:11:13 PM 25.8253 -80.1875 67° East 257 296 5,100 3,656 Climbing Miami Center
Mon 05:12:20 PM 25.8886 -80.2517 318° Northwest 301 346 10,000 3,811 Climbing Miami Center
Mon 05:12:27 PM 25.8947 -80.2542 340° North 280 322 9,800 2,710 Descending Miami Center
Mon 05:13:22 PM 25.9389 -80.3339 302° West 352 405 12,800 2,700 Climbing Miami Center
Mon 05:13:27 PM 25.9450 -80.3386 325° Northwest 343 395 12,500 3,148 Descending Miami Center
Mon 05:14:23 PM 25.9972 -80.4211 305° West 352 405 16,000 3,400 Climbing Miami Center
Mon 05:14:27 PM 26.0033 -80.4258 325° Northwest 349 402 15,900 -94 Descending Miami Center
Mon 05:15:27 PM 26.0578 -80.5086 306° West 374 430 15,900 550 Level Miami Center
Mon 05:16:27 PM 26.1142 -80.5958 306° West 369 425 17,000 1,000 Climbing Miami Center
Mon 05:17:27 PM 26.1683 -80.6808 305° West 363 418 17,900  Climbing Miami Center
Mon 05:18:27 PM 26.2206 -80.7611 306° West 343 395 17,000 -1,700 Descending Miami Center
Mon 05:19:27 PM 26.2872 -80.8422 313° West 320 368 14,500 -3,200 Descending Miami Center
Mon 05:20:27 PM 26.3481 -80.9044 317° Northwest 327 376 10,600 -3,250 Descending Miami Center
Mon 05:21:27 PM 26.4211 -80.9836 316° Northwest 336 387 8,000 -1,300 Descending Miami Center
Mon 05:22:27 PM 26.4567 -81.0544 299° West 306 352 8,000  Level Miami Center
Mon 05:23:27 PM 26.4961 -81.1300 300° West 285 328 8,000  Level Miami Center
Mon 05:24:27 PM 26.5336 -81.2056 299° West 277 319 8,000 -300 Level Miami Center
Mon 05:25:27 PM 26.5711 -81.2814 299° West 282 325 7,400 -950 Descending Miami Center
Mon 05:26:27 PM 26.6064 -81.3547 298° West 277 319 6,100 -1,400 Descending Miami Center
Mon 05:27:27 PM 26.6417 -81.4256 299° West 272 313 4,600 -1,550 Descending Miami Center
Mon 05:28:27 PM 26.6789 -81.5061 297° West 272 313 3,000 -800 Descending Miami Center
Mon 05:29:27 PM 26.7164 -81.5750 301° West 272 313 3,000  Level Miami Center
Mon 05:30:27 PM 26.7494 -81.6439 298° West 267 307 3,000  Level Miami Center
Mon 05:32:00 PM 26.7960 -81.7524 307° West  Level FlightAware
Mon 05:39:00 PM 26.9167 -81.9833 304° West  Level FlightAware
Mon 05:40:00 PM 26.9189 -81.9909 304° West  Level Estimated
Mon 05:41:00 PM 26.9167 -81.9833 304° West  Level FlightAware
Mon 05:42:00 PM 26.9189 -81.9909 304° West  Level Estimated

Login

Don't have an account? Register now (free) for customized features, flight alerts, and more!